createdAt,value
2019-04-27T00:00:45.786Z,23.90
2019-04-27T00:03:16.792Z,22.70
2019-04-27T00:05:47.985Z,20.60
2019-04-27T00:08:35.130Z,23.03
2019-04-27T00:11:08.627Z,26.13
2019-04-27T00:13:40.727Z,23.40
2019-04-27T00:16:13.344Z,24.07
2019-04-27T00:18:45.547Z,24.60
2019-04-27T00:21:16.878Z,25.47
2019-04-27T00:23:49.215Z,28.17
2019-04-27T00:26:18.682Z,23.03
2019-04-27T00:28:47.978Z,26.67
2019-04-27T00:31:17.403Z,21.47
2019-04-27T00:33:46.734Z,26.37
2019-04-27T00:36:17.666Z,27.83
2019-04-27T00:38:54.520Z,22.17
2019-04-27T00:41:24.258Z,26.57
2019-04-27T00:43:53.611Z,26.50
2019-04-27T00:46:23.498Z,25.43
2019-04-27T00:48:53.404Z,27.37
2019-04-27T00:51:23.235Z,24.57
2019-04-27T00:53:53.721Z,25.27
2019-04-27T00:56:42.940Z,25.93
2019-04-27T00:59:30.296Z,31.23
2019-04-27T01:02:19.629Z,27.33
2019-04-27T01:04:49.036Z,23.67
2019-04-27T01:07:18.398Z,20.57
2019-04-27T01:09:47.690Z,23.30
2019-04-27T01:12:18.867Z,26.40
2019-04-27T01:14:48.731Z,23.93
2019-04-27T01:17:18.903Z,22.97
2019-04-27T01:19:49.388Z,20.40
2019-04-27T01:22:18.957Z,22.13
2019-04-27T01:24:49.236Z,18.13
2019-04-27T01:27:20.261Z,20.17
2019-04-27T01:29:50.250Z,21.93
2019-04-27T01:32:20.638Z,22.77
2019-04-27T01:34:50.457Z,23.13
2019-04-27T01:37:21.199Z,22.57
2019-04-27T01:39:50.660Z,18.07
2019-04-27T01:42:20.131Z,17.50
2019-04-27T01:44:51.096Z,22.73
2019-04-27T01:47:20.560Z,22.83
2019-04-27T01:49:50.227Z,19.67
2019-04-27T01:52:19.659Z,17.67
2019-04-27T01:54:49.551Z,17.50
2019-04-27T01:57:19.512Z,13.87
2019-04-27T01:59:49.069Z,19.47
2019-04-27T02:02:39.373Z,14.00
2019-04-27T02:05:29.117Z,22.43
2019-04-27T02:07:59.227Z,19.63
2019-04-27T02:10:29.284Z,16.53
2019-04-27T02:12:58.872Z,18.70
2019-04-27T02:15:29.318Z,16.53
2019-04-27T02:17:59.700Z,19.97
2019-04-27T02:20:30.109Z,17.67
2019-04-27T02:23:01.189Z,19.50
2019-04-27T02:25:30.617Z,14.77
2019-04-27T02:28:01.590Z,18.73
2019-04-27T02:30:49.860Z,19.17
2019-04-27T02:33:23.289Z,17.60
2019-04-27T02:35:52.642Z,20.47
2019-04-27T02:38:21.976Z,19.17
2019-04-27T02:40:54.085Z,22.43
2019-04-27T02:43:29.603Z,16.57
2019-04-27T02:46:00.428Z,15.70
2019-04-27T02:48:30.103Z,17.80
2019-04-27T02:51:03.690Z,15.07
2019-04-27T02:53:53.034Z,16.03
2019-04-27T02:56:22.630Z,12.93
2019-04-27T02:58:52.437Z,15.27
2019-04-27T03:01:23.632Z,17.23
2019-04-27T03:03:53.041Z,14.33
2019-04-27T03:06:22.414Z,17.83
2019-04-27T03:08:54.052Z,12.07
2019-04-27T03:11:23.745Z,14.67
2019-04-27T03:14:03.486Z,12.30
2019-04-27T03:16:49.679Z,11.67
2019-04-27T03:19:21.885Z,16.47
2019-04-27T03:21:55.960Z,13.00
2019-04-27T03:24:43.462Z,16.07
2019-04-27T03:27:14.593Z,11.73
2019-04-27T03:29:44.156Z,11.57
2019-04-27T03:32:13.681Z,14.13
2019-04-27T03:34:43.078Z,15.30
2019-04-27T03:37:12.428Z,14.23
2019-04-27T03:39:41.790Z,10.73
2019-04-27T03:42:12.078Z,9.30
2019-04-27T03:44:41.395Z,12.63
2019-04-27T03:47:12.783Z,15.03
2019-04-27T03:49:42.019Z,13.53
2019-04-27T03:52:12.998Z,11.00
2019-04-27T03:54:46.702Z,9.97
2019-04-27T03:57:20.688Z,11.63
2019-04-27T04:00:03.913Z,15.13
2019-04-27T04:02:33.296Z,13.30
2019-04-27T04:05:02.676Z,12.00
2019-04-27T04:07:32.038Z,11.27
2019-04-27T04:10:01.443Z,11.23
2019-04-27T04:12:35.127Z,15.50
2019-04-27T04:15:09.983Z,12.33
2019-04-27T04:17:40.791Z,8.73
2019-04-27T04:20:11.274Z,13.90
2019-04-27T04:22:40.654Z,12.73
2019-04-27T04:25:10.915Z,10.10
2019-04-27T04:27:42.743Z,15.23
2019-04-27T04:30:12.720Z,13.03
2019-04-27T04:32:42.032Z,11.27
2019-04-27T04:35:22.620Z,10.67
2019-04-27T04:37:52.859Z,12.67
2019-04-27T04:40:24.668Z,10.23
2019-04-27T04:43:00.348Z,10.47
2019-04-27T04:45:49.734Z,10.47
2019-04-27T04:48:20.214Z,8.47
2019-04-27T04:50:50.193Z,11.77
2019-04-27T04:53:20.590Z,8.83
2019-04-27T04:55:50.456Z,11.87
2019-04-27T04:58:20.974Z,10.20
2019-04-27T05:00:50.576Z,14.53
2019-04-27T05:03:21.888Z,11.40
2019-04-27T05:05:51.034Z,9.10
2019-04-27T05:08:21.763Z,9.73
2019-04-27T05:10:59.656Z,9.50
2019-04-27T05:13:34.178Z,11.03
2019-04-27T05:16:09.086Z,10.43
2019-04-27T05:18:46.139Z,14.47
2019-04-27T05:21:25.650Z,10.97
2019-04-27T05:24:00.749Z,11.77
2019-04-27T05:26:34.014Z,13.03
2019-04-27T05:29:09.238Z,11.57
2019-04-27T05:31:44.987Z,9.90
2019-04-27T05:34:19.801Z,10.87
2019-04-27T05:36:54.655Z,8.43
2019-04-27T05:39:29.941Z,9.23
2019-04-27T05:42:04.914Z,10.10
2019-04-27T05:44:54.033Z,10.03
2019-04-27T05:47:31.609Z,11.67
2019-04-27T05:50:06.384Z,12.33
2019-04-27T05:52:41.012Z,14.50
2019-04-27T05:55:15.420Z,13.77
2019-04-27T05:57:50.236Z,8.27
2019-04-27T06:00:24.677Z,9.97
2019-04-27T06:02:59.406Z,9.00
2019-04-27T06:05:33.441Z,10.03
2019-04-27T06:08:08.746Z,9.80
2019-04-27T06:10:38.749Z,12.73
2019-04-27T06:13:08.482Z,9.60
2019-04-27T06:15:39.328Z,12.10
2019-04-27T06:18:09.304Z,13.07
2019-04-27T06:20:50.451Z,10.07
2019-04-27T06:23:09.761Z,11.83
2019-04-27T06:25:39.434Z,9.43
2019-04-27T06:28:09.259Z,10.67
2019-04-27T06:30:39.218Z,10.70
2019-04-27T06:33:10.044Z,12.27
2019-04-27T06:35:39.921Z,10.13
2019-04-27T06:38:11.410Z,10.47
2019-04-27T06:40:40.423Z,9.80
2019-04-27T06:43:09.727Z,10.73
2019-04-27T06:45:39.072Z,10.77
2019-04-27T06:48:10.074Z,9.67
2019-04-27T06:50:40.819Z,9.97
2019-04-27T06:53:10.144Z,9.87
2019-04-27T06:55:41.018Z,11.37
2019-04-27T06:58:11.751Z,10.43
2019-04-27T07:00:42.613Z,9.90
2019-04-27T07:03:11.893Z,11.33
2019-04-27T07:05:41.266Z,9.13
2019-04-27T07:08:12.318Z,9.77
2019-04-27T07:10:41.613Z,11.00
2019-04-27T07:13:12.544Z,8.10
2019-04-27T07:15:41.866Z,11.03
2019-04-27T07:18:11.312Z,13.07
2019-04-27T07:20:40.613Z,9.10
2019-04-27T07:23:10.006Z,10.47
2019-04-27T07:25:39.290Z,9.80
2019-04-27T07:28:09.171Z,8.93
2019-04-27T07:30:38.880Z,11.00
2019-04-27T07:33:08.792Z,13.40
2019-04-27T07:35:39.295Z,10.50
2019-04-27T07:38:09.929Z,13.03
2019-04-27T07:40:41.798Z,11.37
2019-04-27T07:43:21.316Z,11.43
2019-04-27T07:45:50.762Z,10.93
2019-04-27T07:48:19.999Z,13.23
2019-04-27T07:50:49.367Z,13.13
2019-04-27T07:53:19.370Z,10.33
2019-04-27T07:55:49.518Z,12.00
2019-04-27T07:58:20.525Z,15.10
2019-04-27T08:00:51.086Z,11.33
2019-04-27T08:03:20.671Z,7.23
2019-04-27T08:05:49.909Z,12.67
2019-04-27T08:08:21.625Z,9.30
2019-04-27T08:10:50.975Z,12.37
2019-04-27T08:13:20.380Z,10.37
2019-04-27T08:15:49.762Z,12.43
2019-04-27T08:18:19.115Z,7.43
2019-04-27T08:20:49.131Z,8.50
2019-04-27T08:23:19.560Z,9.67
2019-04-27T08:25:49.109Z,11.23
2019-04-27T08:28:23.314Z,10.50
2019-04-27T08:31:10.397Z,11.80
2019-04-27T08:33:39.697Z,8.83
2019-04-27T08:36:09.082Z,9.33
2019-04-27T08:38:38.978Z,9.60
2019-04-27T08:41:08.982Z,8.87
2019-04-27T08:43:39.132Z,9.80
2019-04-27T08:46:08.855Z,9.03
2019-04-27T08:48:39.273Z,7.37
2019-04-27T08:51:09.597Z,8.10
2019-04-27T08:53:39.821Z,7.97
2019-04-27T08:56:09.456Z,11.07
2019-04-27T08:58:38.771Z,10.30
2019-04-27T09:01:10.246Z,12.67
2019-04-27T09:03:39.505Z,13.57
2019-04-27T09:06:10.686Z,8.93
2019-04-27T09:08:44.694Z,12.53
2019-04-27T09:11:18.676Z,11.57
2019-04-27T09:13:50.953Z,10.97
2019-04-27T09:16:24.813Z,9.00
2019-04-27T09:18:55.800Z,11.87
2019-04-27T09:21:25.161Z,13.30
2019-04-27T09:23:54.545Z,9.67
2019-04-27T09:26:23.890Z,10.20
2019-04-27T09:28:53.269Z,10.00
2019-04-27T09:31:22.585Z,11.50
2019-04-27T09:33:51.818Z,14.57
2019-04-27T09:36:21.258Z,9.47
2019-04-27T09:38:50.482Z,12.70
2019-04-27T09:41:19.771Z,11.87
2019-04-27T09:43:49.176Z,8.47
2019-04-27T09:46:18.397Z,15.17
2019-04-27T09:48:47.770Z,12.10
2019-04-27T09:51:17.113Z,11.63
2019-04-27T09:53:46.470Z,11.47
2019-04-27T09:56:16.455Z,11.00
2019-04-27T09:58:47.103Z,10.57
2019-04-27T10:01:18.152Z,10.30
2019-04-27T10:03:47.750Z,13.43
2019-04-27T10:06:17.151Z,14.73
2019-04-27T10:08:49.586Z,11.10
2019-04-27T10:11:18.962Z,12.80
2019-04-27T10:13:49.467Z,11.80
2019-04-27T10:16:18.750Z,9.30
2019-04-27T10:18:48.106Z,7.97
2019-04-27T10:21:17.515Z,10.70
2019-04-27T10:23:47.108Z,11.80
2019-04-27T10:26:16.483Z,16.13
2019-04-27T10:28:45.910Z,13.20
2019-04-27T10:31:15.510Z,11.07
2019-04-27T10:33:45.878Z,13.50
2019-04-27T10:36:16.971Z,6.13
2019-04-27T10:38:47.841Z,10.37
2019-04-27T10:41:17.148Z,8.50
2019-04-27T10:43:46.437Z,7.43
2019-04-27T10:46:17.226Z,6.43
2019-04-27T10:48:46.511Z,6.33
2019-04-27T10:51:16.102Z,6.43
2019-04-27T10:53:46.869Z,4.93
2019-04-27T10:56:16.292Z,5.40
2019-04-27T10:58:45.754Z,4.80
2019-04-27T11:01:16.780Z,7.43
2019-04-27T11:04:05.988Z,7.40
2019-04-27T11:06:37.027Z,6.97
2019-04-27T11:09:11.673Z,4.30
2019-04-27T11:11:41.230Z,5.23
2019-04-27T11:14:10.830Z,6.13
2019-04-27T11:16:40.177Z,8.57
2019-04-27T11:19:09.541Z,7.13
2019-04-27T11:21:38.938Z,7.30
2019-04-27T11:24:08.295Z,7.63
2019-04-27T11:26:37.656Z,5.70
2019-04-27T11:29:07.263Z,10.23
2019-04-27T11:31:36.682Z,8.03
2019-04-27T11:34:06.690Z,22.50
2019-04-27T11:36:37.972Z,9.90
2019-04-27T11:39:12.628Z,7.40
2019-04-27T11:41:43.471Z,4.87
2019-04-27T11:44:13.049Z,6.90
2019-04-27T11:46:42.449Z,4.80
2019-04-27T11:49:11.737Z,5.23
2019-04-27T11:51:41.157Z,5.93
2019-04-27T11:54:10.472Z,4.77
2019-04-27T11:56:39.836Z,6.03
2019-04-27T11:59:09.196Z,10.13
2019-04-27T12:01:38.587Z,7.23
2019-04-27T12:04:07.961Z,12.40
2019-04-27T12:06:37.345Z,15.03
2019-04-27T12:09:07.144Z,7.63
2019-04-27T12:11:36.506Z,9.40
2019-04-27T12:14:06.283Z,7.97
2019-04-27T12:16:36.246Z,5.23
2019-04-27T12:19:06.545Z,9.93
2019-04-27T12:21:36.415Z,6.93
2019-04-27T12:24:05.893Z,7.20
2019-04-27T12:26:36.819Z,5.73
2019-04-27T12:29:07.803Z,6.40
2019-04-27T12:31:38.828Z,7.50
2019-04-27T12:34:08.194Z,7.27
2019-04-27T12:36:37.689Z,6.63
2019-04-27T12:39:12.817Z,7.87
2019-04-27T12:41:42.178Z,6.73
2019-04-27T12:44:11.644Z,6.10
2019-04-27T12:46:41.034Z,5.03
2019-04-27T12:49:10.692Z,7.80
2019-04-27T12:51:40.047Z,3.57
2019-04-27T12:54:11.006Z,7.43
2019-04-27T12:56:58.403Z,5.83
2019-04-27T12:59:46.686Z,5.03
2019-04-27T13:02:16.765Z,5.20
2019-04-27T13:04:46.671Z,5.10
2019-04-27T13:07:16.389Z,7.97
2019-04-27T13:09:46.114Z,4.83
2019-04-27T13:12:15.749Z,5.47
2019-04-27T13:14:45.737Z,4.03
2019-04-27T13:17:16.451Z,3.57
2019-04-27T13:19:45.854Z,5.27
2019-04-27T13:22:16.523Z,4.10
2019-04-27T13:24:46.141Z,3.50
2019-04-27T13:27:16.661Z,3.83
2019-04-27T13:29:46.668Z,3.63
2019-04-27T13:32:17.259Z,4.17
2019-04-27T13:34:46.644Z,5.20
2019-04-27T13:37:23.678Z,6.90
2019-04-27T13:40:05.996Z,7.63
2019-04-27T13:42:27.185Z,5.90
2019-04-27T13:44:56.778Z,6.40
2019-04-27T13:47:43.876Z,4.10
2019-04-27T13:50:21.030Z,5.63
2019-04-27T13:52:50.430Z,4.60
2019-04-27T13:55:19.780Z,4.00
2019-04-27T13:57:50.539Z,15.37
2019-04-27T14:00:21.293Z,37.23
2019-04-27T14:02:50.663Z,7.83
2019-04-27T14:05:19.960Z,6.83
2019-04-27T14:07:49.456Z,6.27
2019-04-27T14:10:20.389Z,6.70
2019-04-27T14:12:49.828Z,7.17
2019-04-27T14:15:19.586Z,4.87
2019-04-27T14:17:50.020Z,6.00
2019-04-27T14:20:19.497Z,6.13
2019-04-27T14:22:49.469Z,4.73
2019-04-27T14:25:20.509Z,5.07
2019-04-27T14:27:49.837Z,7.20
2019-04-27T14:30:19.709Z,3.87
2019-04-27T14:32:50.681Z,4.73
2019-04-27T14:35:20.009Z,4.37
2019-04-27T14:37:50.290Z,5.07
2019-04-27T14:40:19.773Z,4.30
2019-04-27T14:42:50.535Z,4.17
2019-04-27T14:45:20.144Z,3.23
2019-04-27T14:47:51.168Z,3.70
2019-04-27T14:50:20.559Z,4.03
2019-04-27T14:52:49.838Z,3.50
2019-04-27T14:55:19.268Z,3.63
2019-04-27T14:57:49.574Z,3.83
2019-04-27T15:00:21.041Z,4.17
2019-04-27T15:02:51.671Z,3.87
2019-04-27T15:05:21.332Z,4.20
2019-04-27T15:07:50.758Z,4.00
2019-04-27T15:10:20.161Z,4.00
2019-04-27T15:12:49.525Z,3.67
2019-04-27T15:15:28.352Z,3.77
2019-04-27T15:17:57.576Z,4.73
2019-04-27T15:20:32.863Z,4.50
2019-04-27T15:23:02.506Z,5.50
2019-04-27T15:25:34.980Z,5.37
2019-04-27T15:28:11.530Z,4.60
2019-04-27T15:30:52.309Z,5.53
2019-04-27T15:33:39.673Z,5.50
2019-04-27T15:36:22.647Z,6.80
2019-04-27T15:38:55.463Z,7.33
2019-04-27T15:41:28.894Z,5.87
2019-04-27T15:44:04.818Z,8.37
2019-04-27T15:46:33.649Z,7.00
2019-04-27T15:49:03.051Z,6.53
2019-04-27T15:51:32.205Z,6.73
2019-04-27T15:54:02.029Z,7.47
2019-04-27T15:56:35.225Z,6.23
2019-04-27T15:59:08.679Z,5.80
2019-04-27T16:01:39.588Z,5.33
2019-04-27T16:04:11.237Z,4.77
2019-04-27T16:06:42.803Z,5.17
2019-04-27T16:09:15.939Z,4.83
2019-04-27T16:11:50.146Z,5.80
2019-04-27T16:14:15.578Z,3.60
2019-04-27T16:16:44.890Z,5.23
2019-04-27T16:19:14.376Z,5.27
2019-04-27T16:21:47.072Z,3.90
2019-04-27T16:24:16.997Z,3.07
2019-04-27T16:26:46.330Z,4.17
2019-04-27T16:29:18.520Z,2.97
2019-04-27T16:31:48.248Z,3.97
2019-04-27T16:34:18.498Z,3.63
2019-04-27T16:36:48.027Z,3.73
2019-04-27T16:39:20.377Z,3.63
2019-04-27T16:41:50.362Z,4.17
2019-04-27T16:44:19.989Z,4.53
2019-04-27T16:46:49.424Z,4.17
2019-04-27T16:49:18.862Z,6.83
2019-04-27T16:51:49.264Z,4.33
2019-04-27T16:54:21.293Z,5.17
2019-04-27T16:57:00.054Z,4.47
2019-04-27T16:59:39.741Z,5.30
2019-04-27T17:01:53.506Z,4.03
2019-04-27T17:04:22.868Z,4.70
2019-04-27T17:06:52.313Z,5.93
2019-04-27T17:09:21.716Z,4.27
2019-04-27T17:11:51.854Z,4.87
2019-04-27T17:14:41.509Z,4.20
2019-04-27T17:17:28.287Z,4.30
2019-04-27T17:19:59.455Z,3.37
2019-04-27T17:22:28.804Z,3.97
2019-04-27T17:24:58.229Z,5.20
2019-04-27T17:27:38.275Z,4.40
2019-04-27T17:30:09.114Z,7.23
2019-04-27T17:32:43.020Z,6.10
2019-04-27T17:35:14.837Z,5.07
2019-04-27T17:37:43.613Z,2.27
2019-04-27T17:40:15.396Z,2.50
2019-04-27T17:42:44.099Z,4.20
2019-04-27T17:45:13.659Z,3.47
2019-04-27T17:47:43.106Z,5.20
2019-04-27T17:50:12.861Z,6.33
2019-04-27T17:52:42.278Z,8.60
2019-04-27T17:55:11.675Z,6.60
2019-04-27T17:57:41.041Z,6.80
2019-04-27T18:00:11.529Z,4.83
2019-04-27T18:02:42.505Z,3.63
2019-04-27T18:05:13.843Z,4.03
2019-04-27T18:07:44.353Z,5.17
2019-04-27T18:10:22.685Z,4.80
2019-04-27T18:12:48.787Z,4.50
2019-04-27T18:15:18.203Z,4.03
2019-04-27T18:17:52.046Z,4.37
2019-04-27T18:20:29.641Z,4.57
2019-04-27T18:23:08.870Z,6.27
2019-04-27T18:25:44.751Z,6.00
2019-04-27T18:28:19.036Z,6.67
2019-04-27T18:30:52.727Z,6.50
2019-04-27T18:33:22.313Z,8.03
2019-04-27T18:35:51.633Z,5.10
2019-04-27T18:38:21.084Z,7.47
2019-04-27T18:40:50.482Z,14.43
2019-04-27T18:43:19.863Z,13.93
2019-04-27T18:45:49.276Z,11.20
2019-04-27T18:48:22.880Z,6.43
2019-04-27T18:51:02.784Z,6.33
2019-04-27T18:53:33.804Z,4.50
2019-04-27T18:56:05.353Z,3.97
2019-04-27T18:58:34.306Z,4.53
2019-04-27T19:01:04.002Z,5.10
2019-04-27T19:03:33.231Z,5.00
2019-04-27T19:06:03.926Z,4.70
2019-04-27T19:08:33.347Z,5.23
2019-04-27T19:11:04.879Z,3.60
2019-04-27T19:13:33.774Z,4.47
2019-04-27T19:16:03.197Z,4.27
2019-04-27T19:18:32.560Z,4.13
2019-04-27T19:21:01.951Z,3.40
2019-04-27T19:23:31.279Z,3.80
2019-04-27T19:26:11.312Z,4.23
2019-04-27T19:28:42.356Z,3.53
2019-04-27T19:31:16.040Z,4.27
2019-04-27T19:33:45.499Z,4.77
2019-04-27T19:36:14.891Z,3.93
2019-04-27T19:38:44.290Z,5.40
2019-04-27T19:41:13.655Z,4.60
2019-04-27T19:43:42.978Z,3.93
2019-04-27T19:46:12.351Z,3.37
2019-04-27T19:48:41.764Z,4.10
2019-04-27T19:51:11.142Z,4.77
2019-04-27T19:53:40.458Z,4.87
2019-04-27T19:56:09.856Z,3.73
2019-04-27T19:58:40.844Z,4.10
2019-04-27T20:01:14.582Z,3.47
2019-04-27T20:03:44.640Z,2.73
2019-04-27T20:06:14.051Z,3.03
2019-04-27T20:08:45.045Z,3.27
2019-04-27T20:11:14.523Z,3.60
2019-04-27T20:13:48.583Z,4.07
2019-04-27T20:16:17.888Z,3.87
2019-04-27T20:18:47.340Z,3.57
2019-04-27T20:21:16.708Z,3.33
2019-04-27T20:23:46.003Z,4.03
2019-04-27T20:26:15.339Z,5.50
2019-04-27T20:28:44.775Z,3.97
2019-04-27T20:31:14.283Z,4.80
2019-04-27T20:33:43.700Z,5.93
2019-04-27T20:36:13.062Z,4.00
2019-04-27T20:38:42.354Z,5.27
2019-04-27T20:41:11.755Z,6.73
2019-04-27T20:43:42.060Z,4.90
2019-04-27T20:46:11.918Z,4.03
2019-04-27T20:48:41.639Z,4.83
2019-04-27T20:51:11.503Z,5.10
2019-04-27T20:53:42.646Z,5.03
2019-04-27T20:56:12.060Z,6.33
2019-04-27T20:58:41.424Z,5.00
2019-04-27T21:01:10.764Z,6.37
2019-04-27T21:03:47.745Z,5.67
2019-04-27T21:06:18.759Z,6.37
2019-04-27T21:08:48.124Z,7.60
2019-04-27T21:11:17.430Z,7.20
2019-04-27T21:13:46.714Z,5.57
2019-04-27T21:16:16.218Z,5.23
2019-04-27T21:18:45.597Z,6.27
2019-04-27T21:21:15.136Z,5.10
2019-04-27T21:23:44.611Z,4.90
2019-04-27T21:26:13.980Z,4.93
2019-04-27T21:28:43.495Z,5.63
2019-04-27T21:31:12.952Z,5.43
2019-04-27T21:33:42.285Z,6.73
2019-04-27T21:36:11.850Z,4.33
2019-04-27T21:38:42.948Z,4.00
2019-04-27T21:41:12.555Z,4.30
2019-04-27T21:43:43.723Z,5.03
2019-04-27T21:46:12.866Z,4.47
2019-04-27T21:48:42.211Z,4.40
2019-04-27T21:51:11.939Z,6.37
2019-04-27T21:53:51.359Z,5.83
2019-04-27T21:56:22.050Z,5.63
2019-04-27T21:58:51.379Z,5.20
2019-04-27T22:01:23.415Z,5.13
2019-04-27T22:03:52.913Z,4.40
2019-04-27T22:06:22.304Z,4.37
2019-04-27T22:08:51.708Z,6.27
2019-04-27T22:11:21.901Z,4.77
2019-04-27T22:13:52.022Z,5.93
2019-04-27T22:16:21.505Z,4.77
2019-04-27T22:18:51.903Z,3.87
2019-04-27T22:21:21.842Z,4.27
2019-04-27T22:23:52.903Z,5.87
2019-04-27T22:26:22.409Z,5.97
2019-04-27T22:28:52.163Z,5.23
2019-04-27T22:31:21.859Z,4.97
2019-04-27T22:33:54.418Z,5.57
2019-04-27T22:36:22.159Z,5.13
2019-04-27T22:38:52.122Z,4.73
2019-04-27T22:41:32.069Z,6.53
2019-04-27T22:44:05.998Z,4.37
2019-04-27T22:46:41.004Z,6.17
2019-04-27T22:49:10.946Z,4.93
2019-04-27T22:51:41.172Z,4.63
2019-04-27T22:54:11.763Z,7.13
2019-04-27T22:56:42.894Z,5.27
2019-04-27T22:59:21.345Z,5.83
2019-04-27T23:01:55.599Z,6.27
2019-04-27T23:04:32.370Z,6.70
2019-04-27T23:07:00.662Z,8.50
2019-04-27T23:09:31.494Z,5.73
2019-04-27T23:12:01.875Z,6.20
2019-04-27T23:14:31.399Z,8.60
2019-04-27T23:17:19.008Z,6.80
2019-04-27T23:19:48.638Z,6.67
2019-04-27T23:22:18.024Z,6.77
2019-04-27T23:24:47.343Z,7.20
2019-04-27T23:27:16.701Z,6.77
2019-04-27T23:29:46.151Z,5.17
2019-04-27T23:32:21.435Z,8.60
2019-04-27T23:34:51.461Z,8.27
2019-04-27T23:37:21.050Z,7.03
2019-04-27T23:39:50.499Z,5.13
2019-04-27T23:42:21.625Z,5.80
2019-04-27T23:44:51.888Z,9.27
2019-04-27T23:47:21.359Z,5.13
2019-04-27T23:49:50.910Z,6.57
2019-04-27T23:52:24.802Z,4.67
2019-04-27T23:54:54.133Z,4.50
2019-04-27T23:57:23.572Z,3.93
2019-04-27T23:59:52.856Z,4.50
